New Nada — 3ELP9 — position and weather

sailwx.info

Track history (hours):
 
Tides and Currents Weather Stations Pressure Air Temp Water Temp Dewpoint Dewpoint Depression Visibility Wind Speed Wind Dir Waves Ship Positions

New Nada

Last reported at 2016-Sep-17 21:33 UTC. Time now 2016-Sep-26 20:44 UTC.
Position N 39°01' W 126°52'.
Warning: this ship's position is 8 days out of date.

Length 180 m; beam 32.2 m.

Type: Cargo ship. MMSI: 356005000.

Date/timePositionNaut miles runAvg speedWind from/ knotsBaromVisibWave heightAir tempDewpointWater temp
2016-Sep-17 21:33N 39°01' W 126°52'1716.7
2016-Sep-17 20:33N 38°56' W 126°31'2216.9
2016-Sep-17 19:16N 38°50' W 126°05'9516.5
2016-Sep-17 13:33N 38°22' W 124°09'1616.3
2016-Sep-17 12:33N 38°16' W 123°49'3215.9
2016-Sep-17 10:34N 38°03' W 123°13'1716.8
2016-Sep-17 09:34N 37°52' W 122°56'1413.7
2016-Sep-17 08:33N 37°46' W 122°41'1313.0
2016-Sep-17 07:34N 37°50' W 122°25'17 8.6
2016-Sep-17 05:34N 38°02' W 122°09'1 1.0
2016-Sep-17 04:30N 38°02' W 122°08'0 0.0
2016-Sep-17 00:30N 38°02' W 122°08'0 0.0
2016-Sep-16 15:25N 38°02' W 122°08'0 0.0
2016-Sep-16 07:31N 38°02' W 122°08'28 7.2
2016-Sep-16 03:33N 37°46' W 122°38'1110.7
2016-Sep-16 02:33N 37°35' W 122°40'3216.1
2016-Sep-16 00:33N 37°04' W 122°34'3115.4
2016-Sep-15 22:33N 36°35' W 122°20'1615.8
2016-Sep-15 21:33N 36°20' W 122°13'1615.8
2016-Sep-15 20:33N 36°06' W 122°04'3316.6
2016-Sep-15 18:33N 35°38' W 121°43'18012.7
2016-Sep-15 04:25N 33°51' W 118°47'1210.4
2016-Sep-15 03:13N 33°45' W 118°34'1710.4
2016-Sep-15 01:33N 33°38' W 118°14'8 2.7
2016-Sep-14 22:30N 33°46' W 118°13'0 0.0
2016-Sep-14 21:33N 33°46' W 118°13'0 0.0
2016-Sep-14 17:33N 33°46' W 118°13'0 0.0
2016-Sep-14 16:33N 33°46' W 118°13'0 0.0
2016-Sep-14 13:33N 33°46' W 118°13'0 0.0
2016-Sep-14 12:33N 33°46' W 118°13'8 3.8
2016-Sep-14 10:33N 33°39' W 118°11'7 6.6
2016-Sep-14 09:33N 33°36' W 118°19'27111.1
2016-Sep-13 09:11N 35°18' W 123°22'  
Track history (hours):
 
Tides and Currents Weather Stations Pressure Air Temp Water Temp Dewpoint Dewpoint Depression Visibility Wind Speed Wind Dir Waves Ship Positions

New Nada

Last reported at 2016-Sep-17 21:33 UTC. Time now 2016-Sep-26 20:44 UTC.
Position N 39°01' W 126°52'.
Warning: this ship's position is 8 days out of date.

Length 180 m; beam 32.2 m.

Type: Cargo ship. MMSI: 356005000.

Date/timePositionNaut miles runAvg speedWind from/ knotsBaromVisibWave heightAir tempDewpointWater temp
2016-Sep-17 21:33N 39°01' W 126°52'1716.7
2016-Sep-17 20:33N 38°56' W 126°31'2216.9
2016-Sep-17 19:16N 38°50' W 126°05'9516.5
2016-Sep-17 13:33N 38°22' W 124°09'1616.3
2016-Sep-17 12:33N 38°16' W 123°49'3215.9
2016-Sep-17 10:34N 38°03' W 123°13'1716.8
2016-Sep-17 09:34N 37°52' W 122°56'1413.7
2016-Sep-17 08:33N 37°46' W 122°41'1313.0
2016-Sep-17 07:34N 37°50' W 122°25'17 8.6
2016-Sep-17 05:34N 38°02' W 122°09'1 1.0
2016-Sep-17 04:30N 38°02' W 122°08'0 0.0
2016-Sep-17 00:30N 38°02' W 122°08'0 0.0
2016-Sep-16 15:25N 38°02' W 122°08'0 0.0
2016-Sep-16 07:31N 38°02' W 122°08'28 7.2
2016-Sep-16 03:33N 37°46' W 122°38'1110.7
2016-Sep-16 02:33N 37°35' W 122°40'3216.1
2016-Sep-16 00:33N 37°04' W 122°34'3115.4
2016-Sep-15 22:33N 36°35' W 122°20'1615.8
2016-Sep-15 21:33N 36°20' W 122°13'1615.8
2016-Sep-15 20:33N 36°06' W 122°04'3316.6
2016-Sep-15 18:33N 35°38' W 121°43'18012.7
2016-Sep-15 04:25N 33°51' W 118°47'1210.4
2016-Sep-15 03:13N 33°45' W 118°34'1710.4
2016-Sep-15 01:33N 33°38' W 118°14'8 2.7
2016-Sep-14 22:30N 33°46' W 118°13'0 0.0
2016-Sep-14 21:33N 33°46' W 118°13'0 0.0
2016-Sep-14 17:33N 33°46' W 118°13'0 0.0
2016-Sep-14 16:33N 33°46' W 118°13'0 0.0
2016-Sep-14 13:33N 33°46' W 118°13'0 0.0
2016-Sep-14 12:33N 33°46' W 118°13'8 3.8
2016-Sep-14 10:33N 33°39' W 118°11'7 6.6
2016-Sep-14 09:33N 33°36' W 118°19'27111.1
2016-Sep-13 09:11N 35°18' W 123°22'  

Dump ship's entire track history